Time,TemperatureF,DewpointF,PressureIn,WindDirection,WindDirectionDegrees,WindSpeedMPH,WindSpeedGustMPH,Humidity,HourlyPrecipIn,Conditions,Clouds,dailyrainin,SolarRadiationWatts/m^2,SoftwareType,DateUTC
2013-01-24 00:02:00,37.0,16.0,-100.00,SW,217,8.0,26.0,42,0.00,,,0.00,0.000000,,2013-01-24 07:02:00,
2013-01-24 00:33:00,36.0,15.0,-100.00,SSW,198,19.0,38.0,42,0.00,,,0.00,0.000000,,2013-01-24 07:33:00,
2013-01-24 00:43:00,36.0,15.0,-100.00,SSW,198,19.0,38.0,42,0.00,,,0.00,0.000000,,2013-01-24 07:43:00,
2013-01-24 00:53:00,36.0,15.0,-100.00,SSW,198,19.0,38.0,42,0.00,,,0.00,0.000000,,2013-01-24 07:53:00,
2013-01-24 01:02:00,36.0,15.0,-100.00,SSW,198,19.0,38.0,42,0.00,,,0.00,0.000000,,2013-01-24 08:02:00,
2013-01-24 01:33:00,33.0,27.0,-100.00,SSW,209,14.0,30.0,79,0.00,,,0.00,0.000000,,2013-01-24 08:33:00,
2013-01-24 01:43:00,33.0,27.0,-100.00,SSW,209,14.0,30.0,79,0.00,,,0.00,0.000000,,2013-01-24 08:43:00,
2013-01-24 01:53:00,33.0,27.0,-100.00,SSW,209,14.0,30.0,79,0.00,,,0.00,0.000000,,2013-01-24 08:53:00,
2013-01-24 02:02:00,33.0,27.0,-100.00,SSW,209,14.0,30.0,79,0.00,,,0.00,0.000000,,2013-01-24 09:02:00,
2013-01-24 02:33:00,29.0,28.0,-100.00,SSW,192,9.0,16.0,97,0.00,,,0.00,0.000000,,2013-01-24 09:33:00,
2013-01-24 02:43:00,29.0,28.0,-100.00,SSW,192,9.0,16.0,97,0.00,,,0.00,0.000000,,2013-01-24 09:43:00,
2013-01-24 02:53:00,29.0,28.0,-100.00,SSW,192,9.0,16.0,97,0.00,,,0.00,0.000000,,2013-01-24 09:53:00,
2013-01-24 03:02:00,29.0,28.0,-100.00,SSW,192,9.0,16.0,97,0.00,,,0.00,0.000000,,2013-01-24 10:02:00,
2013-01-24 03:33:00,29.0,29.0,-100.00,SSW,206,11.0,19.0,98,0.00,,,0.00,0.000000,,2013-01-24 10:33:00,
2013-01-24 03:43:00,29.0,29.0,-100.00,SSW,206,11.0,19.0,98,0.00,,,0.00,0.000000,,2013-01-24 10:43:00,
2013-01-24 03:53:00,29.0,29.0,-100.00,SSW,206,11.0,19.0,98,0.00,,,0.00,0.000000,,2013-01-24 10:53:00,
2013-01-24 04:02:00,29.0,29.0,-100.00,SSW,206,11.0,19.0,98,0.00,,,0.00,0.000000,,2013-01-24 11:02:00,
2013-01-24 04:33:00,30.0,29.0,-100.00,SSW,207,11.0,16.0,98,0.00,,,0.00,0.000000,,2013-01-24 11:33:00,
2013-01-24 04:43:00,30.0,29.0,-100.00,SSW,207,11.0,16.0,98,0.00,,,0.00,0.000000,,2013-01-24 11:43:00,
2013-01-24 04:53:00,30.0,29.0,-100.00,SSW,207,11.0,16.0,98,0.00,,,0.00,0.000000,,2013-01-24 11:53:00,
2013-01-24 05:02:00,30.0,29.0,-100.00,SSW,207,11.0,16.0,98,0.00,,,0.00,0.000000,,2013-01-24 12:02:00,
2013-01-24 05:33:00,30.0,29.0,-100.00,SW,218,8.0,12.0,98,0.00,,,0.00,0.000000,,2013-01-24 12:33:00,
2013-01-24 05:43:00,30.0,29.0,-100.00,SW,218,8.0,12.0,98,0.00,,,0.00,0.000000,,2013-01-24 12:43:00,
2013-01-24 05:53:00,30.0,29.0,-100.00,SW,218,8.0,12.0,98,0.00,,,0.00,0.000000,,2013-01-24 12:53:00,
2013-01-24 06:02:00,30.0,29.0,-100.00,SW,218,8.0,12.0,98,0.00,,,0.00,0.000000,,2013-01-24 13:02:00,
2013-01-24 06:33:00,30.0,28.0,-100.00,SW,222,10.0,17.0,94,0.00,,,0.00,0.000000,,2013-01-24 13:33:00,
2013-01-24 06:43:00,30.0,28.0,-100.00,SW,222,10.0,17.0,94,0.00,,,0.00,0.000000,,2013-01-24 13:43:00,
2013-01-24 06:53:00,30.0,28.0,-100.00,SW,222,10.0,17.0,94,0.00,,,0.00,0.000000,,2013-01-24 13:53:00,
2013-01-24 07:02:00,30.0,28.0,-100.00,SW,222,10.0,17.0,94,0.00,,,0.00,0.000000,,2013-01-24 14:02:00,
2013-01-24 07:33:00,30.0,27.0,-100.00,SW,215,11.0,20.0,90,0.00,,,0.00,0.000000,,2013-01-24 14:33:00,
2013-01-24 07:43:00,30.0,27.0,-100.00,SW,215,11.0,20.0,90,0.00,,,0.00,0.000000,,2013-01-24 14:43:00,
2013-01-24 07:54:00,30.0,27.0,-100.00,SW,215,11.0,20.0,90,0.00,,,0.00,0.000000,,2013-01-24 14:54:00,
2013-01-24 08:03:00,30.0,27.0,-100.00,SW,215,11.0,20.0,90,0.00,,,0.00,0.000000,,2013-01-24 15:03:00,
2013-01-24 08:33:00,30.0,26.0,-100.00,SW,225,10.0,20.0,86,0.00,,,0.00,0.000000,,2013-01-24 15:33:00,
2013-01-24 08:43:00,30.0,26.0,-100.00,SW,225,10.0,20.0,86,0.00,,,0.00,0.000000,,2013-01-24 15:43:00,
2013-01-24 08:53:00,30.0,26.0,-100.00,SW,225,10.0,20.0,86,0.00,,,0.00,0.000000,,2013-01-24 15:53:00,
2013-01-24 09:02:00,30.0,26.0,-100.00,SW,225,10.0,20.0,86,0.00,,,0.00,0.000000,,2013-01-24 16:02:00,
2013-01-24 09:33:00,30.0,26.0,-100.00,West,274,10.0,19.0,86,0.00,,,0.00,26.000000,,2013-01-24 16:33:00,
2013-01-24 09:43:00,30.0,26.0,-100.00,West,274,10.0,19.0,86,0.00,,,0.00,26.000000,,2013-01-24 16:43:00,
2013-01-24 10:01:00,30.0,26.0,-100.00,West,274,10.0,19.0,86,0.00,,,0.00,26.000000,,2013-01-24 17:01:00,
2013-01-24 10:32:00,30.0,26.0,-100.00,NW,310,7.0,15.0,84,0.00,,,0.00,105.000000,,2013-01-24 17:32:00,
2013-01-24 10:42:00,30.0,26.0,-100.00,NW,310,7.0,15.0,84,0.00,,,0.00,105.000000,,2013-01-24 17:42:00,
2013-01-24 10:52:00,30.0,26.0,-100.00,NW,310,7.0,15.0,84,0.00,,,0.00,105.000000,,2013-01-24 17:52:00,
2013-01-24 11:02:00,30.0,26.0,-100.00,NW,310,7.0,15.0,84,0.00,,,0.00,105.000000,,2013-01-24 18:02:00,
2013-01-24 11:33:00,33.0,25.0,-100.00,SSW,201,6.0,11.0,72,0.01,,,0.01,227.000000,,2013-01-24 18:33:00,
2013-01-24 11:43:00,33.0,25.0,-100.00,SSW,201,6.0,11.0,72,0.01,,,0.01,227.000000,,2013-01-24 18:43:00,
2013-01-24 11:53:00,33.0,25.0,-100.00,SSW,201,6.0,11.0,72,0.01,,,0.01,227.000000,,2013-01-24 18:53:00,
2013-01-24 12:01:00,33.0,25.0,-100.00,SSW,201,6.0,11.0,72,0.01,,,0.01,227.000000,,2013-01-24 19:01:00,
2013-01-24 12:33:00,31.0,23.0,-100.00,SW,226,11.0,19.0,73,0.00,,,0.01,214.000000,,2013-01-24 19:33:00,
2013-01-24 12:42:00,31.0,23.0,-100.00,SW,226,11.0,19.0,73,0.00,,,0.01,214.000000,,2013-01-24 19:42:00,
2013-01-24 12:52:00,31.0,23.0,-100.00,SW,226,11.0,19.0,73,0.00,,,0.01,214.000000,,2013-01-24 19:52:00,
2013-01-24 13:01:00,31.0,23.0,-100.00,SW,226,11.0,19.0,73,0.00,,,0.01,214.000000,,2013-01-24 20:01:00,
2013-01-24 13:33:00,35.0,24.0,-100.00,SSW,199,11.0,19.0,64,0.00,,,-99.99,277.000000,,2013-01-24 20:33:00,
2013-01-24 13:42:00,35.0,24.0,-100.00,SSW,199,11.0,19.0,64,0.00,,,-99.99,277.000000,,2013-01-24 20:42:00,
2013-01-24 13:52:00,35.0,24.0,-100.00,SSW,199,11.0,19.0,64,0.00,,,-99.99,277.000000,,2013-01-24 20:52:00,
2013-01-24 14:02:00,35.0,24.0,-100.00,SSW,199,11.0,19.0,64,0.00,,,-99.99,277.000000,,2013-01-24 21:02:00,
2013-01-24 14:33:00,39.0,21.0,-100.00,SSW,209,12.0,23.0,48,0.00,,,0.01,487.000000,,2013-01-24 21:33:00,
2013-01-24 14:43:00,39.0,21.0,-100.00,SSW,209,12.0,23.0,48,0.00,,,0.01,487.000000,,2013-01-24 21:43:00,
2013-01-24 14:53:00,39.0,21.0,-100.00,SSW,209,12.0,23.0,48,0.00,,,0.01,487.000000,,2013-01-24 21:53:00,
2013-01-24 15:02:00,39.0,21.0,-100.00,SSW,209,12.0,23.0,48,0.00,,,0.01,487.000000,,2013-01-24 22:02:00,
2013-01-24 15:33:00,37.0,20.0,-100.00,SW,232,9.0,26.0,50,0.00,,,0.01,460.000000,,2013-01-24 22:33:00,
2013-01-24 15:42:00,37.0,20.0,-100.00,SW,232,9.0,26.0,50,0.00,,,0.01,460.000000,,2013-01-24 22:42:00,
2013-01-24 15:53:00,37.0,20.0,-100.00,SW,232,9.0,26.0,50,0.00,,,0.01,460.000000,,2013-01-24 22:53:00,
2013-01-24 16:02:00,37.0,20.0,-100.00,SW,232,9.0,26.0,50,0.00,,,0.01,460.000000,,2013-01-24 23:02:00,
2013-01-24 16:32:00,38.0,20.0,-100.00,WSW,245,6.0,20.0,48,0.00,,,0.01,295.000000,,2013-01-24 23:32:00,
2013-01-24 16:42:00,38.0,20.0,-100.00,WSW,245,6.0,20.0,48,0.00,,,0.01,295.000000,,2013-01-24 23:42:00,
2013-01-24 16:52:00,38.0,20.0,-100.00,WSW,245,6.0,20.0,48,0.00,,,0.01,295.000000,,2013-01-24 23:52:00,
2013-01-24 17:01:00,38.0,20.0,-100.00,WSW,245,6.0,20.0,48,0.00,,,0.01,295.000000,,2013-01-25 00:01:00,
2013-01-24 17:32:00,34.0,20.0,-100.00,SW,219,7.0,14.0,57,0.00,,,0.01,128.000000,,2013-01-25 00:32:00,
2013-01-24 17:42:00,34.0,20.0,-100.00,SW,219,7.0,14.0,57,0.00,,,0.01,128.000000,,2013-01-25 00:42:00,
2013-01-24 17:52:00,34.0,20.0,-100.00,SW,219,7.0,14.0,57,0.00,,,0.01,128.000000,,2013-01-25 00:52:00,
2013-01-24 18:01:00,34.0,20.0,-100.00,SW,219,7.0,14.0,57,0.00,,,0.01,128.000000,,2013-01-25 01:01:00,
2013-01-24 18:32:00,31.0,20.0,-100.00,SW,235,3.0,8.0,63,0.00,,,0.01,7.000000,,2013-01-25 01:32:00,
2013-01-24 18:42:00,31.0,20.0,-100.00,SW,235,3.0,8.0,63,0.00,,,0.01,7.000000,,2013-01-25 01:42:00,
2013-01-24 18:52:00,31.0,20.0,-100.00,SW,235,3.0,8.0,63,0.00,,,0.01,7.000000,,2013-01-25 01:52:00,
2013-01-24 19:02:00,31.0,20.0,-100.00,SW,235,3.0,8.0,63,0.00,,,0.01,7.000000,,2013-01-25 02:02:00,
2013-01-24 19:33:00,30.0,20.0,-100.00,SSW,195,5.0,7.0,66,0.00,,,0.01,0.000000,,2013-01-25 02:33:00,
2013-01-24 19:43:00,30.0,20.0,-100.00,SSW,195,5.0,7.0,66,0.00,,,0.01,0.000000,,2013-01-25 02:43:00,
2013-01-24 19:52:00,30.0,20.0,-100.00,SSW,195,5.0,7.0,66,0.00,,,0.01,0.000000,,2013-01-25 02:52:00,
2013-01-24 20:01:00,30.0,20.0,-100.00,SSW,195,5.0,7.0,66,0.00,,,0.01,0.000000,,2013-01-25 03:01:00,
2013-01-24 20:33:00,29.0,20.0,-100.00,SE,129,4.0,6.0,68,0.00,,,0.01,0.000000,,2013-01-25 03:33:00,
2013-01-24 20:42:00,29.0,20.0,-100.00,SE,129,4.0,6.0,68,0.00,,,0.01,0.000000,,2013-01-25 03:42:00,
2013-01-24 20:52:00,29.0,20.0,-100.00,SE,129,4.0,6.0,68,0.00,,,0.01,0.000000,,2013-01-25 03:52:00,
2013-01-24 21:01:00,29.0,20.0,-100.00,SE,129,4.0,6.0,68,0.00,,,0.01,0.000000,,2013-01-25 04:01:00,
2013-01-24 21:32:00,29.0,20.0,-100.00,SE,138,3.0,7.0,68,0.00,,,0.01,0.000000,,2013-01-25 04:32:00,
2013-01-24 21:42:00,29.0,20.0,-100.00,SE,138,3.0,7.0,68,0.00,,,0.01,0.000000,,2013-01-25 04:42:00,
2013-01-24 21:51:00,29.0,20.0,-100.00,SE,138,3.0,7.0,68,0.00,,,0.01,0.000000,,2013-01-25 04:51:00,
2013-01-24 22:03:00,29.0,20.0,-100.00,SE,138,3.0,7.0,68,0.00,,,0.01,0.000000,,2013-01-25 05:03:00,
2013-01-24 22:32:00,29.0,19.0,-100.00,SSW,205,8.0,11.0,67,0.00,,,0.01,0.000000,,2013-01-25 05:32:00,
2013-01-24 22:43:00,29.0,19.0,-100.00,SSW,205,8.0,11.0,67,0.00,,,0.01,0.000000,,2013-01-25 05:43:00,
2013-01-24 22:52:00,29.0,19.0,-100.00,SSW,205,8.0,11.0,67,0.00,,,0.01,0.000000,,2013-01-25 05:52:00,
2013-01-24 23:01:00,29.0,19.0,-100.00,SSW,205,8.0,11.0,67,0.00,,,0.01,0.000000,,2013-01-25 06:01:00,
2013-01-24 23:32:00,28.0,19.0,-100.00,SW,217,9.0,13.0,68,0.00,,,0.01,0.000000,,2013-01-25 06:32:00,
2013-01-24 23:42:00,28.0,19.0,-100.00,SW,217,9.0,13.0,68,0.00,,,0.01,0.000000,,2013-01-25 06:42:00,
2013-01-24 23:52:00,28.0,19.0,-100.00,SW,217,9.0,13.0,68,0.00,,,0.01,0.000000,,2013-01-25 06:52:00,